sensor_id;sensor_type;location;lat;lon;timestamp;P1;durP1;ratioP1;P2;durP2;ratioP2
22248;SDS011;67538;52.180;5.646;2023-09-30T00:00:01;18.50;;;6.00;;
22248;SDS011;67538;52.180;5.646;2023-09-30T00:02:29;17.15;;;5.55;;
22248;SDS011;67538;52.180;5.646;2023-09-30T00:04:56;18.23;;;6.47;;
22248;SDS011;67538;52.180;5.646;2023-09-30T00:07:24;19.38;;;6.18;;
22248;SDS011;67538;52.180;5.646;2023-09-30T00:09:52;16.40;;;5.65;;
22248;SDS011;67538;52.180;5.646;2023-09-30T00:12:19;17.40;;;5.68;;
22248;SDS011;67538;52.180;5.646;2023-09-30T00:14:46;14.77;;;5.88;;
22248;SDS011;67538;52.180;5.646;2023-09-30T00:17:13;19.33;;;6.30;;
22248;SDS011;67538;52.180;5.646;2023-09-30T00:19:41;20.33;;;6.20;;
22248;SDS011;67538;52.180;5.646;2023-09-30T00:22:08;17.15;;;6.07;;
22248;SDS011;67538;52.180;5.646;2023-09-30T00:24:36;19.15;;;6.10;;
22248;SDS011;67538;52.180;5.646;2023-09-30T00:27:03;20.20;;;6.28;;
22248;SDS011;67538;52.180;5.646;2023-09-30T00:29:31;17.90;;;6.30;;
22248;SDS011;67538;52.180;5.646;2023-09-30T00:31:58;14.60;;;5.30;;
22248;SDS011;67538;52.180;5.646;2023-09-30T00:34:25;15.80;;;5.57;;
22248;SDS011;67538;52.180;5.646;2023-09-30T00:36:53;17.80;;;5.75;;
22248;SDS011;67538;52.180;5.646;2023-09-30T00:39:20;18.63;;;6.00;;
22248;SDS011;67538;52.180;5.646;2023-09-30T00:41:49;13.63;;;5.95;;
22248;SDS011;67538;52.180;5.646;2023-09-30T00:44:16;15.82;;;6.63;;
22248;SDS011;67538;52.180;5.646;2023-09-30T00:46:43;24.40;;;9.23;;
22248;SDS011;67538;52.180;5.646;2023-09-30T00:49:11;17.83;;;6.35;;
22248;SDS011;67538;52.180;5.646;2023-09-30T00:51:42;20.25;;;6.35;;
22248;SDS011;67538;52.180;5.646;2023-09-30T00:54:09;16.08;;;5.85;;
22248;SDS011;67538;52.180;5.646;2023-09-30T00:56:37;17.58;;;6.35;;
22248;SDS011;67538;52.180;5.646;2023-09-30T00:59:11;15.38;;;5.55;;
22248;SDS011;67538;52.180;5.646;2023-09-30T01:01:39;15.98;;;6.30;;
22248;SDS011;67538;52.180;5.646;2023-09-30T01:04:07;17.90;;;5.97;;
22248;SDS011;67538;52.180;5.646;2023-09-30T01:06:34;17.42;;;5.75;;
22248;SDS011;67538;52.180;5.646;2023-09-30T01:09:02;20.10;;;6.35;;
22248;SDS011;67538;52.180;5.646;2023-09-30T01:11:29;17.40;;;6.53;;
22248;SDS011;67538;52.180;5.646;2023-09-30T01:13:56;19.55;;;6.20;;
22248;SDS011;67538;52.180;5.646;2023-09-30T01:16:25;17.50;;;5.75;;
22248;SDS011;67538;52.180;5.646;2023-09-30T01:18:52;13.82;;;5.68;;
22248;SDS011;67538;52.180;5.646;2023-09-30T01:21:19;17.60;;;5.93;;
22248;SDS011;67538;52.180;5.646;2023-09-30T01:23:48;14.65;;;5.57;;
22248;SDS011;67538;52.180;5.646;2023-09-30T01:26:15;14.90;;;5.30;;
22248;SDS011;67538;52.180;5.646;2023-09-30T01:28:42;15.82;;;5.30;;
22248;SDS011;67538;52.180;5.646;2023-09-30T01:31:10;16.55;;;5.20;;
22248;SDS011;67538;52.180;5.646;2023-09-30T01:33:37;21.17;;;5.70;;
22248;SDS011;67538;52.180;5.646;2023-09-30T01:36:04;15.35;;;5.82;;
22248;SDS011;67538;52.180;5.646;2023-09-30T01:38:31;14.05;;;5.40;;
22248;SDS011;67538;52.180;5.646;2023-09-30T01:41:00;17.90;;;6.38;;
22248;SDS011;67538;52.180;5.646;2023-09-30T01:43:27;17.52;;;6.25;;
22248;SDS011;67538;52.180;5.646;2023-09-30T01:45:55;16.13;;;6.53;;
22248;SDS011;67538;52.180;5.646;2023-09-30T01:48:23;17.20;;;6.47;;
22248;SDS011;67538;52.180;5.646;2023-09-30T01:50:50;19.55;;;6.50;;
22248;SDS011;67538;52.180;5.646;2023-09-30T01:53:17;15.63;;;6.50;;
22248;SDS011;67538;52.180;5.646;2023-09-30T01:55:44;14.27;;;5.95;;
22248;SDS011;67538;52.180;5.646;2023-09-30T01:58:14;22.85;;;6.10;;
22248;SDS011;67538;52.180;5.646;2023-09-30T02:00:41;13.53;;;5.57;;
22248;SDS011;67538;52.180;5.646;2023-09-30T02:03:08;13.65;;;5.65;;
22248;SDS011;67538;52.180;5.646;2023-09-30T02:05:36;17.80;;;6.45;;
22248;SDS011;67538;52.180;5.646;2023-09-30T02:08:05;16.67;;;6.50;;
22248;SDS011;67538;52.180;5.646;2023-09-30T02:10:32;17.52;;;6.15;;
22248;SDS011;67538;52.180;5.646;2023-09-30T02:12:59;15.00;;;6.03;;
22248;SDS011;67538;52.180;5.646;2023-09-30T02:15:28;14.15;;;5.43;;
22248;SDS011;67538;52.180;5.646;2023-09-30T02:17:55;13.18;;;5.50;;
22248;SDS011;67538;52.180;5.646;2023-09-30T02:20:23;13.73;;;5.57;;
22248;SDS011;67538;52.180;5.646;2023-09-30T02:22:51;19.15;;;7.25;;
22248;SDS011;67538;52.180;5.646;2023-09-30T02:25:19;16.92;;;7.25;;
22248;SDS011;67538;52.180;5.646;2023-09-30T02:27:47;14.77;;;5.68;;
22248;SDS011;67538;52.180;5.646;2023-09-30T02:30:15;16.93;;;5.97;;
22248;SDS011;67538;52.180;5.646;2023-09-30T02:32:44;17.70;;;5.82;;
22248;SDS011;67538;52.180;5.646;2023-09-30T02:35:12;14.68;;;6.28;;
22248;SDS011;67538;52.180;5.646;2023-09-30T02:37:40;19.02;;;6.18;;
22248;SDS011;67538;52.180;5.646;2023-09-30T02:40:07;15.88;;;6.22;;
22248;SDS011;67538;52.180;5.646;2023-09-30T02:42:36;17.95;;;6.45;;
22248;SDS011;67538;52.180;5.646;2023-09-30T02:45:03;12.50;;;5.70;;
22248;SDS011;67538;52.180;5.646;2023-09-30T02:47:31;12.98;;;5.40;;
22248;SDS011;67538;52.180;5.646;2023-09-30T02:50:00;17.57;;;6.37;;
22248;SDS011;67538;52.180;5.646;2023-09-30T02:52:27;15.47;;;6.17;;
22248;SDS011;67538;52.180;5.646;2023-09-30T02:54:55;15.43;;;6.05;;
22248;SDS011;67538;52.180;5.646;2023-09-30T02:57:23;16.00;;;6.32;;
22248;SDS011;67538;52.180;5.646;2023-09-30T02:59:50;15.25;;;5.97;;
22248;SDS011;67538;52.180;5.646;2023-09-30T03:02:19;13.63;;;5.90;;
22248;SDS011;67538;52.180;5.646;2023-09-30T03:04:47;13.80;;;5.63;;
22248;SDS011;67538;52.180;5.646;2023-09-30T03:07:17;13.63;;;5.82;;
22248;SDS011;67538;52.180;5.646;2023-09-30T03:09:45;18.20;;;6.85;;
22248;SDS011;67538;52.180;5.646;2023-09-30T03:12:13;18.33;;;6.75;;
22248;SDS011;67538;52.180;5.646;2023-09-30T03:14:40;20.90;;;6.63;;
22248;SDS011;67538;52.180;5.646;2023-09-30T03:17:07;15.98;;;6.97;;
22248;SDS011;67538;52.180;5.646;2023-09-30T03:19:36;17.50;;;6.82;;
22248;SDS011;67538;52.180;5.646;2023-09-30T03:22:04;16.42;;;6.57;;
22248;SDS011;67538;52.180;5.646;2023-09-30T03:24:38;16.27;;;6.68;;
22248;SDS011;67538;52.180;5.646;2023-09-30T03:27:06;13.88;;;7.20;;
22248;SDS011;67538;52.180;5.646;2023-09-30T03:29:35;16.87;;;6.87;;
22248;SDS011;67538;52.180;5.646;2023-09-30T03:32:03;18.55;;;7.00;;
22248;SDS011;67538;52.180;5.646;2023-09-30T03:34:30;20.90;;;7.10;;
22248;SDS011;67538;52.180;5.646;2023-09-30T03:36:57;13.88;;;6.43;;
22248;SDS011;67538;52.180;5.646;2023-09-30T03:39:24;13.25;;;6.25;;
22248;SDS011;67538;52.180;5.646;2023-09-30T03:41:55;20.33;;;6.70;;
22248;SDS011;67538;52.180;5.646;2023-09-30T03:44:23;17.48;;;6.78;;
22248;SDS011;67538;52.180;5.646;2023-09-30T03:46:50;17.95;;;7.20;;
22248;SDS011;67538;52.180;5.646;2023-09-30T03:49:18;17.52;;;7.03;;
22248;SDS011;67538;52.180;5.646;2023-09-30T03:51:46;17.13;;;7.30;;
22248;SDS011;67538;52.180;5.646;2023-09-30T03:54:15;19.35;;;7.88;;
22248;SDS011;67538;52.180;5.646;2023-09-30T03:56:44;20.48;;;7.07;;
22248;SDS011;67538;52.180;5.646;2023-09-30T03:59:13;14.80;;;6.90;;
22248;SDS011;67538;52.180;5.646;2023-09-30T04:01:41;16.13;;;7.60;;
22248;SDS011;67538;52.180;5.646;2023-09-30T04:04:09;15.85;;;6.95;;
22248;SDS011;67538;52.180;5.646;2023-09-30T04:06:37;15.75;;;7.43;;
22248;SDS011;67538;52.180;5.646;2023-09-30T04:09:04;16.13;;;7.32;;
22248;SDS011;67538;52.180;5.646;2023-09-30T04:11:35;20.30;;;7.90;;
22248;SDS011;67538;52.180;5.646;2023-09-30T04:14:03;17.65;;;7.85;;
22248;SDS011;67538;52.180;5.646;2023-09-30T04:16:33;15.50;;;7.50;;
22248;SDS011;67538;52.180;5.646;2023-09-30T04:19:00;16.58;;;7.50;;
22248;SDS011;67538;52.180;5.646;2023-09-30T04:21:27;15.77;;;8.20;;
22248;SDS011;67538;52.180;5.646;2023-09-30T04:23:58;15.63;;;7.10;;
22248;SDS011;67538;52.180;5.646;2023-09-30T04:26:25;17.08;;;7.22;;
22248;SDS011;67538;52.180;5.646;2023-09-30T04:28:53;18.50;;;7.00;;
22248;SDS011;67538;52.180;5.646;2023-09-30T04:31:20;18.17;;;7.53;;
22248;SDS011;67538;52.180;5.646;2023-09-30T04:33:50;16.67;;;7.28;;
22248;SDS011;67538;52.180;5.646;2023-09-30T04:36:17;16.95;;;7.43;;
22248;SDS011;67538;52.180;5.646;2023-09-30T04:38:46;17.38;;;7.07;;
22248;SDS011;67538;52.180;5.646;2023-09-30T04:41:13;15.20;;;7.30;;
22248;SDS011;67538;52.180;5.646;2023-09-30T04:43:41;17.98;;;7.57;;
22248;SDS011;67538;52.180;5.646;2023-09-30T04:46:08;17.33;;;7.63;;
22248;SDS011;67538;52.180;5.646;2023-09-30T04:48:37;19.55;;;8.30;;
22248;SDS011;67538;52.180;5.646;2023-09-30T04:51:07;17.77;;;7.70;;
22248;SDS011;67538;52.180;5.646;2023-09-30T04:53:37;15.77;;;7.47;;
22248;SDS011;67538;52.180;5.646;2023-09-30T04:56:04;14.80;;;6.82;;
22248;SDS011;67538;52.180;5.646;2023-09-30T04:58:32;17.25;;;7.30;;
22248;SDS011;67538;52.180;5.646;2023-09-30T05:00:59;15.10;;;7.22;;
22248;SDS011;67538;52.180;5.646;2023-09-30T05:03:26;18.45;;;7.85;;
22248;SDS011;67538;52.180;5.646;2023-09-30T05:05:53;16.85;;;7.75;;
22248;SDS011;67538;52.180;5.646;2023-09-30T05:08:24;16.47;;;7.67;;
22248;SDS011;67538;52.180;5.646;2023-09-30T05:10:54;17.35;;;8.88;;
22248;SDS011;67538;52.180;5.646;2023-09-30T05:13:21;21.38;;;8.65;;
22248;SDS011;67538;52.180;5.646;2023-09-30T05:15:49;17.88;;;8.80;;
22248;SDS011;67538;52.180;5.646;2023-09-30T05:18:16;18.80;;;7.75;;
22248;SDS011;67538;52.180;5.646;2023-09-30T05:20:43;17.98;;;7.82;;
22248;SDS011;67538;52.180;5.646;2023-09-30T05:23:10;15.18;;;7.68;;
22248;SDS011;67538;52.180;5.646;2023-09-30T05:25:41;18.08;;;7.75;;
22248;SDS011;67538;52.180;5.646;2023-09-30T05:28:08;16.70;;;7.70;;
22248;SDS011;67538;52.180;5.646;2023-09-30T05:30:36;16.55;;;8.15;;
22248;SDS011;67538;52.180;5.646;2023-09-30T05:33:04;16.65;;;7.35;;
22248;SDS011;67538;52.180;5.646;2023-09-30T05:35:31;15.55;;;7.20;;
22248;SDS011;67538;52.180;5.646;2023-09-30T05:37:58;17.77;;;7.47;;
22248;SDS011;67538;52.180;5.646;2023-09-30T05:40:25;22.33;;;7.90;;
22248;SDS011;67538;52.180;5.646;2023-09-30T05:42:57;16.27;;;8.30;;
22248;SDS011;67538;52.180;5.646;2023-09-30T05:45:24;23.92;;;8.55;;
22248;SDS011;67538;52.180;5.646;2023-09-30T05:47:52;25.20;;;11.18;;
22248;SDS011;67538;52.180;5.646;2023-09-30T05:50:21;18.02;;;8.23;;
22248;SDS011;67538;52.180;5.646;2023-09-30T05:52:51;15.60;;;7.70;;
22248;SDS011;67538;52.180;5.646;2023-09-30T05:55:18;17.27;;;7.83;;
22248;SDS011;67538;52.180;5.646;2023-09-30T05:57:46;18.25;;;9.10;;
22248;SDS011;67538;52.180;5.646;2023-09-30T06:00:16;22.23;;;9.90;;
22248;SDS011;67538;52.180;5.646;2023-09-30T06:02:47;16.13;;;8.60;;
22248;SDS011;67538;52.180;5.646;2023-09-30T06:05:14;16.23;;;7.93;;
22248;SDS011;67538;52.180;5.646;2023-09-30T06:07:44;16.02;;;7.53;;
22248;SDS011;67538;52.180;5.646;2023-09-30T06:10:11;15.73;;;7.97;;
22248;SDS011;67538;52.180;5.646;2023-09-30T06:12:43;15.10;;;7.97;;
22248;SDS011;67538;52.180;5.646;2023-09-30T06:15:11;42.05;;;10.52;;
22248;SDS011;67538;52.180;5.646;2023-09-30T06:17:40;26.63;;;9.18;;
22248;SDS011;67538;52.180;5.646;2023-09-30T06:20:08;25.63;;;9.10;;
22248;SDS011;67538;52.180;5.646;2023-09-30T06:22:41;23.43;;;9.40;;
22248;SDS011;67538;52.180;5.646;2023-09-30T06:25:10;20.83;;;9.23;;
22248;SDS011;67538;52.180;5.646;2023-09-30T06:27:38;22.57;;;11.33;;
22248;SDS011;67538;52.180;5.646;2023-09-30T06:30:05;19.63;;;11.00;;
22248;SDS011;67538;52.180;5.646;2023-09-30T06:32:34;18.02;;;9.75;;
22248;SDS011;67538;52.180;5.646;2023-09-30T06:35:03;19.50;;;9.60;;
22248;SDS011;67538;52.180;5.646;2023-09-30T06:37:31;16.07;;;8.70;;
22248;SDS011;67538;52.180;5.646;2023-09-30T06:39:58;18.60;;;8.48;;
22248;SDS011;67538;52.180;5.646;2023-09-30T06:42:29;20.10;;;8.30;;
22248;SDS011;67538;52.180;5.646;2023-09-30T06:44:56;20.37;;;8.80;;
22248;SDS011;67538;52.180;5.646;2023-09-30T06:47:24;18.77;;;9.25;;
22248;SDS011;67538;52.180;5.646;2023-09-30T06:49:51;26.55;;;10.35;;
22248;SDS011;67538;52.180;5.646;2023-09-30T06:52:19;23.48;;;10.23;;
22248;SDS011;67538;52.180;5.646;2023-09-30T06:54:46;20.05;;;10.20;;
22248;SDS011;67538;52.180;5.646;2023-09-30T06:57:13;25.35;;;10.48;;
22248;SDS011;67538;52.180;5.646;2023-09-30T06:59:41;20.90;;;10.30;;
22248;SDS011;67538;52.180;5.646;2023-09-30T07:02:08;22.33;;;10.77;;
22248;SDS011;67538;52.180;5.646;2023-09-30T07:04:35;23.27;;;11.10;;
22248;SDS011;67538;52.180;5.646;2023-09-30T07:07:02;27.73;;;12.45;;
22248;SDS011;67538;52.180;5.646;2023-09-30T07:09:30;25.15;;;12.88;;
22248;SDS011;67538;52.180;5.646;2023-09-30T07:11:58;23.88;;;13.63;;
22248;SDS011;67538;52.180;5.646;2023-09-30T07:14:25;24.48;;;13.23;;
22248;SDS011;67538;52.180;5.646;2023-09-30T07:16:52;25.67;;;13.27;;
22248;SDS011;67538;52.180;5.646;2023-09-30T07:19:19;27.92;;;16.33;;
22248;SDS011;67538;52.180;5.646;2023-09-30T07:21:46;38.30;;;19.55;;
22248;SDS011;67538;52.180;5.646;2023-09-30T07:24:13;48.17;;;22.00;;
22248;SDS011;67538;52.180;5.646;2023-09-30T07:26:42;52.20;;;21.08;;
22248;SDS011;67538;52.180;5.646;2023-09-30T07:29:09;38.72;;;20.85;;
22248;SDS011;67538;52.180;5.646;2023-09-30T07:31:36;44.97;;;21.45;;
22248;SDS011;67538;52.180;5.646;2023-09-30T07:34:04;51.53;;;21.48;;
22248;SDS011;67538;52.180;5.646;2023-09-30T07:36:31;40.92;;;21.13;;
22248;SDS011;67538;52.180;5.646;2023-09-30T07:38:58;41.50;;;21.73;;
22248;SDS011;67538;52.180;5.646;2023-09-30T07:41:27;46.77;;;20.73;;
22248;SDS011;67538;52.180;5.646;2023-09-30T07:43:55;38.70;;;20.00;;
22248;SDS011;67538;52.180;5.646;2023-09-30T07:46:22;38.33;;;20.67;;
22248;SDS011;67538;52.180;5.646;2023-09-30T07:48:49;38.40;;;20.23;;
22248;SDS011;67538;52.180;5.646;2023-09-30T07:51:17;36.38;;;19.05;;
22248;SDS011;67538;52.180;5.646;2023-09-30T07:53:44;32.45;;;17.40;;
22248;SDS011;67538;52.180;5.646;2023-09-30T07:56:12;34.95;;;17.33;;
22248;SDS011;67538;52.180;5.646;2023-09-30T07:58:40;34.55;;;17.02;;
22248;SDS011;67538;52.180;5.646;2023-09-30T08:01:08;30.42;;;16.40;;
22248;SDS011;67538;52.180;5.646;2023-09-30T08:03:35;33.80;;;17.35;;
22248;SDS011;67538;52.180;5.646;2023-09-30T08:06:03;37.47;;;17.52;;
22248;SDS011;67538;52.180;5.646;2023-09-30T08:08:30;34.90;;;16.73;;
22248;SDS011;67538;52.180;5.646;2023-09-30T08:10:57;29.42;;;16.02;;
22248;SDS011;67538;52.180;5.646;2023-09-30T08:13:24;31.50;;;15.32;;
22248;SDS011;67538;52.180;5.646;2023-09-30T08:15:52;30.23;;;16.40;;
22248;SDS011;67538;52.180;5.646;2023-09-30T08:18:21;36.97;;;15.48;;
22248;SDS011;67538;52.180;5.646;2023-09-30T08:20:48;30.33;;;15.40;;
22248;SDS011;67538;52.180;5.646;2023-09-30T08:23:15;31.30;;;15.75;;
22248;SDS011;67538;52.180;5.646;2023-09-30T08:25:42;30.40;;;15.88;;
22248;SDS011;67538;52.180;5.646;2023-09-30T08:28:09;29.60;;;15.07;;
22248;SDS011;67538;52.180;5.646;2023-09-30T08:30:37;31.75;;;15.45;;
22248;SDS011;67538;52.180;5.646;2023-09-30T08:33:04;33.38;;;16.40;;
22248;SDS011;67538;52.180;5.646;2023-09-30T08:35:36;30.67;;;15.68;;
22248;SDS011;67538;52.180;5.646;2023-09-30T08:38:03;30.02;;;14.40;;
22248;SDS011;67538;52.180;5.646;2023-09-30T08:40:30;28.20;;;13.35;;
22248;SDS011;67538;52.180;5.646;2023-09-30T08:42:58;28.97;;;13.40;;
22248;SDS011;67538;52.180;5.646;2023-09-30T08:45:27;30.83;;;15.00;;
22248;SDS011;67538;52.180;5.646;2023-09-30T08:47:56;29.58;;;14.45;;
22248;SDS011;67538;52.180;5.646;2023-09-30T08:50:29;26.77;;;14.38;;
22248;SDS011;67538;52.180;5.646;2023-09-30T08:52:58;29.80;;;13.73;;
22248;SDS011;67538;52.180;5.646;2023-09-30T08:55:29;26.90;;;13.43;;
22248;SDS011;67538;52.180;5.646;2023-09-30T08:57:58;29.35;;;13.98;;
22248;SDS011;67538;52.180;5.646;2023-09-30T09:00:25;31.88;;;13.60;;
22248;SDS011;67538;52.180;5.646;2023-09-30T09:02:52;29.10;;;14.05;;
22248;SDS011;67538;52.180;5.646;2023-09-30T09:05:19;31.27;;;14.83;;
22248;SDS011;67538;52.180;5.646;2023-09-30T09:07:46;25.50;;;14.10;;
22248;SDS011;67538;52.180;5.646;2023-09-30T09:10:16;27.58;;;13.70;;
22248;SDS011;67538;52.180;5.646;2023-09-30T09:12:44;25.38;;;13.10;;
22248;SDS011;67538;52.180;5.646;2023-09-30T09:15:23;25.58;;;13.63;;
22248;SDS011;67538;52.180;5.646;2023-09-30T09:17:51;29.77;;;13.95;;
22248;SDS011;67538;52.180;5.646;2023-09-30T09:20:20;29.75;;;13.90;;
22248;SDS011;67538;52.180;5.646;2023-09-30T09:22:49;26.13;;;13.07;;
22248;SDS011;67538;52.180;5.646;2023-09-30T09:25:20;27.15;;;13.15;;
22248;SDS011;67538;52.180;5.646;2023-09-30T09:27:48;25.10;;;13.23;;
22248;SDS011;67538;52.180;5.646;2023-09-30T09:30:16;23.08;;;10.77;;
22248;SDS011;67538;52.180;5.646;2023-09-30T09:32:54;30.55;;;11.43;;
22248;SDS011;67538;52.180;5.646;2023-09-30T09:35:26;22.65;;;11.60;;
22248;SDS011;67538;52.180;5.646;2023-09-30T09:37:56;31.53;;;12.60;;
22248;SDS011;67538;52.180;5.646;2023-09-30T09:40:26;22.98;;;12.43;;
22248;SDS011;67538;52.180;5.646;2023-09-30T09:42:54;26.73;;;12.32;;
22248;SDS011;67538;52.180;5.646;2023-09-30T09:45:22;25.35;;;11.85;;
22248;SDS011;67538;52.180;5.646;2023-09-30T09:47:51;26.40;;;12.23;;
22248;SDS011;67538;52.180;5.646;2023-09-30T09:50:19;23.88;;;12.50;;
22248;SDS011;67538;52.180;5.646;2023-09-30T09:52:48;23.30;;;11.52;;
22248;SDS011;67538;52.180;5.646;2023-09-30T09:55:16;19.85;;;11.20;;
22248;SDS011;67538;52.180;5.646;2023-09-30T09:57:46;22.55;;;11.50;;
22248;SDS011;67538;52.180;5.646;2023-09-30T10:00:15;24.80;;;11.25;;
22248;SDS011;67538;52.180;5.646;2023-09-30T10:02:44;18.67;;;9.07;;
22248;SDS011;67538;52.180;5.646;2023-09-30T10:05:11;16.97;;;8.63;;
22248;SDS011;67538;52.180;5.646;2023-09-30T10:07:41;21.38;;;9.90;;
22248;SDS011;67538;52.180;5.646;2023-09-30T10:10:13;19.05;;;9.82;;
22248;SDS011;67538;52.180;5.646;2023-09-30T10:12:43;23.33;;;8.63;;
22248;SDS011;67538;52.180;5.646;2023-09-30T10:18:08;22.88;;;9.88;;
22248;SDS011;67538;52.180;5.646;2023-09-30T10:20:37;20.65;;;10.23;;
22248;SDS011;67538;52.180;5.646;2023-09-30T10:23:25;21.58;;;9.43;;
22248;SDS011;67538;52.180;5.646;2023-09-30T10:28:43;20.42;;;8.90;;
22248;SDS011;67538;52.180;5.646;2023-09-30T10:31:14;20.77;;;8.93;;
22248;SDS011;67538;52.180;5.646;2023-09-30T10:36:44;18.05;;;7.53;;
22248;SDS011;67538;52.180;5.646;2023-09-30T10:39:13;23.20;;;7.40;;
22248;SDS011;67538;52.180;5.646;2023-09-30T10:41:49;17.27;;;6.00;;
22248;SDS011;67538;52.180;5.646;2023-09-30T10:47:00;16.58;;;6.40;;
22248;SDS011;67538;52.180;5.646;2023-09-30T10:50:03;23.30;;;7.57;;
22248;SDS011;67538;52.180;5.646;2023-09-30T10:52:51;16.20;;;7.32;;
22248;SDS011;67538;52.180;5.646;2023-09-30T10:55:18;24.52;;;7.65;;
22248;SDS011;67538;52.180;5.646;2023-09-30T10:57:50;17.37;;;5.80;;
22248;SDS011;67538;52.180;5.646;2023-09-30T11:00:17;18.58;;;5.55;;
22248;SDS011;67538;52.180;5.646;2023-09-30T11:02:52;16.70;;;5.53;;
22248;SDS011;67538;52.180;5.646;2023-09-30T11:05:19;15.93;;;5.47;;
22248;SDS011;67538;52.180;5.646;2023-09-30T11:07:47;18.77;;;6.65;;
22248;SDS011;67538;52.180;5.646;2023-09-30T11:10:16;20.88;;;6.95;;
22248;SDS011;67538;52.180;5.646;2023-09-30T11:12:54;15.88;;;6.50;;
22248;SDS011;67538;52.180;5.646;2023-09-30T11:15:21;15.45;;;6.43;;
22248;SDS011;67538;52.180;5.646;2023-09-30T11:17:49;19.25;;;6.55;;
22248;SDS011;67538;52.180;5.646;2023-09-30T11:20:18;15.13;;;6.28;;
22248;SDS011;67538;52.180;5.646;2023-09-30T11:22:46;16.55;;;4.82;;
22248;SDS011;67538;52.180;5.646;2023-09-30T11:25:17;18.35;;;6.50;;
22248;SDS011;67538;52.180;5.646;2023-09-30T11:27:44;18.55;;;4.80;;
22248;SDS011;67538;52.180;5.646;2023-09-30T11:30:12;12.20;;;4.13;;
22248;SDS011;67538;52.180;5.646;2023-09-30T11:32:40;11.77;;;4.10;;
22248;SDS011;67538;52.180;5.646;2023-09-30T11:35:22;15.20;;;4.22;;
22248;SDS011;67538;52.180;5.646;2023-09-30T11:37:50;17.20;;;4.00;;
22248;SDS011;67538;52.180;5.646;2023-09-30T11:40:18;13.85;;;3.80;;
22248;SDS011;67538;52.180;5.646;2023-09-30T11:43:06;17.50;;;4.20;;
22248;SDS011;67538;52.180;5.646;2023-09-30T11:45:34;15.80;;;3.90;;
22248;SDS011;67538;52.180;5.646;2023-09-30T11:48:02;14.60;;;4.00;;
22248;SDS011;67538;52.180;5.646;2023-09-30T11:50:46;13.60;;;3.70;;
22248;SDS011;67538;52.180;5.646;2023-09-30T11:53:17;12.40;;;3.73;;
22248;SDS011;67538;52.180;5.646;2023-09-30T11:55:45;13.05;;;3.85;;
22248;SDS011;67538;52.180;5.646;2023-09-30T11:58:13;13.53;;;3.67;;
22248;SDS011;67538;52.180;5.646;2023-09-30T12:00:43;13.15;;;3.78;;
22248;SDS011;67538;52.180;5.646;2023-09-30T12:03:11;16.17;;;4.10;;
22248;SDS011;67538;52.180;5.646;2023-09-30T12:05:38;13.98;;;4.18;;
22248;SDS011;67538;52.180;5.646;2023-09-30T12:08:07;13.98;;;3.72;;
22248;SDS011;67538;52.180;5.646;2023-09-30T12:10:36;18.48;;;4.10;;
22248;SDS011;67538;52.180;5.646;2023-09-30T12:13:04;15.23;;;3.97;;
22248;SDS011;67538;52.180;5.646;2023-09-30T12:15:31;12.10;;;3.90;;
22248;SDS011;67538;52.180;5.646;2023-09-30T12:17:58;11.43;;;4.03;;
22248;SDS011;67538;52.180;5.646;2023-09-30T12:20:25;12.03;;;4.00;;
22248;SDS011;67538;52.180;5.646;2023-09-30T12:22:52;16.13;;;5.10;;
22248;SDS011;67538;52.180;5.646;2023-09-30T12:25:20;11.43;;;4.18;;
22248;SDS011;67538;52.180;5.646;2023-09-30T12:27:49;15.17;;;3.93;;
22248;SDS011;67538;52.180;5.646;2023-09-30T12:30:16;13.43;;;3.88;;
22248;SDS011;67538;52.180;5.646;2023-09-30T12:32:45;12.43;;;3.97;;
22248;SDS011;67538;52.180;5.646;2023-09-30T12:35:12;11.18;;;3.40;;
22248;SDS011;67538;52.180;5.646;2023-09-30T12:37:39;13.85;;;3.10;;
22248;SDS011;67538;52.180;5.646;2023-09-30T12:40:08;9.93;;;3.30;;
22248;SDS011;67538;52.180;5.646;2023-09-30T12:42:38;11.02;;;3.10;;
22248;SDS011;67538;52.180;5.646;2023-09-30T12:45:05;15.50;;;3.75;;
22248;SDS011;67538;52.180;5.646;2023-09-30T12:47:33;14.25;;;3.65;;
22248;SDS011;67538;52.180;5.646;2023-09-30T12:50:00;15.18;;;3.75;;
22248;SDS011;67538;52.180;5.646;2023-09-30T12:52:27;13.50;;;3.80;;
22248;SDS011;67538;52.180;5.646;2023-09-30T12:54:55;13.00;;;4.00;;
22248;SDS011;67538;52.180;5.646;2023-09-30T12:57:22;14.00;;;4.00;;
22248;SDS011;67538;52.180;5.646;2023-09-30T12:59:51;12.20;;;4.00;;
22248;SDS011;67538;52.180;5.646;2023-09-30T13:02:18;14.65;;;4.15;;
22248;SDS011;67538;52.180;5.646;2023-09-30T13:04:46;14.07;;;4.15;;
22248;SDS011;67538;52.180;5.646;2023-09-30T13:07:13;16.23;;;4.20;;
22248;SDS011;67538;52.180;5.646;2023-09-30T13:09:41;15.82;;;4.22;;
22248;SDS011;67538;52.180;5.646;2023-09-30T13:12:08;13.18;;;3.90;;
22248;SDS011;67538;52.180;5.646;2023-09-30T13:14:36;15.30;;;4.63;;
22248;SDS011;67538;52.180;5.646;2023-09-30T13:17:05;15.25;;;4.50;;
22248;SDS011;67538;52.180;5.646;2023-09-30T13:19:33;14.48;;;4.22;;
22248;SDS011;67538;52.180;5.646;2023-09-30T13:22:00;12.85;;;4.13;;
22248;SDS011;67538;52.180;5.646;2023-09-30T13:24:27;15.55;;;3.97;;
22248;SDS011;67538;52.180;5.646;2023-09-30T13:26:54;16.93;;;4.50;;
22248;SDS011;67538;52.180;5.646;2023-09-30T13:29:21;13.80;;;4.47;;
22248;SDS011;67538;52.180;5.646;2023-09-30T13:31:48;11.77;;;4.10;;
22248;SDS011;67538;52.180;5.646;2023-09-30T13:34:17;11.07;;;3.78;;
22248;SDS011;67538;52.180;5.646;2023-09-30T13:36:44;12.02;;;4.20;;
22248;SDS011;67538;52.180;5.646;2023-09-30T13:39:11;16.90;;;4.57;;
22248;SDS011;67538;52.180;5.646;2023-09-30T13:41:39;15.07;;;4.75;;
22248;SDS011;67538;52.180;5.646;2023-09-30T13:44:06;19.10;;;5.30;;
22248;SDS011;67538;52.180;5.646;2023-09-30T13:46:33;20.63;;;6.00;;
22248;SDS011;67538;52.180;5.646;2023-09-30T13:49:00;16.00;;;6.00;;
22248;SDS011;67538;52.180;5.646;2023-09-30T13:51:30;16.25;;;5.68;;
22248;SDS011;67538;52.180;5.646;2023-09-30T13:53:57;17.20;;;5.80;;
22248;SDS011;67538;52.180;5.646;2023-09-30T13:56:24;16.88;;;6.10;;
22248;SDS011;67538;52.180;5.646;2023-09-30T13:58:52;17.48;;;5.70;;
22248;SDS011;67538;52.180;5.646;2023-09-30T14:01:19;15.73;;;5.20;;
22248;SDS011;67538;52.180;5.646;2023-09-30T14:03:47;17.05;;;4.70;;
22248;SDS011;67538;52.180;5.646;2023-09-30T14:06:14;16.80;;;4.18;;
22248;SDS011;67538;52.180;5.646;2023-09-30T14:08:43;15.48;;;4.45;;
22248;SDS011;67538;52.180;5.646;2023-09-30T14:11:11;12.82;;;4.20;;
22248;SDS011;67538;52.180;5.646;2023-09-30T14:13:38;15.02;;;4.80;;
22248;SDS011;67538;52.180;5.646;2023-09-30T14:16:05;16.48;;;4.10;;
22248;SDS011;67538;52.180;5.646;2023-09-30T14:18:32;15.38;;;3.95;;
22248;SDS011;67538;52.180;5.646;2023-09-30T14:21:01;11.30;;;3.70;;
22248;SDS011;67538;52.180;5.646;2023-09-30T14:23:29;14.07;;;4.03;;
22248;SDS011;67538;52.180;5.646;2023-09-30T14:25:57;17.70;;;4.15;;
22248;SDS011;67538;52.180;5.646;2023-09-30T14:28:24;14.95;;;4.07;;
22248;SDS011;67538;52.180;5.646;2023-09-30T14:30:51;14.25;;;3.92;;
22248;SDS011;67538;52.180;5.646;2023-09-30T14:33:18;12.13;;;3.92;;
22248;SDS011;67538;52.180;5.646;2023-09-30T14:35:46;14.23;;;4.55;;
22248;SDS011;67538;52.180;5.646;2023-09-30T14:38:13;11.57;;;3.75;;
22248;SDS011;67538;52.180;5.646;2023-09-30T14:40:40;14.98;;;4.70;;
22248;SDS011;67538;52.180;5.646;2023-09-30T14:43:09;18.25;;;4.45;;
22248;SDS011;67538;52.180;5.646;2023-09-30T14:45:39;13.38;;;4.22;;
22248;SDS011;67538;52.180;5.646;2023-09-30T14:48:07;12.52;;;3.90;;